Time;durP1;ratioP1;P1;durP2;ratioP2;P2;SDS_P1;SDS_P2;PMS_P1;PMS_P2;Temp;Humidity;BMP_temperature;BMP_pressure;BME280_temperature;BME280_humidity;BME280_pressure;Samples;Min_cycle;Max_cycle;Signal;HPM_P1;HPM_P2
2024/02/29 00:06:58;;;;;;;;;;;5.50;99.90;;;;;;6748049;88;20071;-79
2024/02/29 00:17:00;;;;;;;;;;;5.40;99.90;;;;;;6748989;88;20053;-79
2024/02/29 00:27:01;;;;;;;;;;;5.40;99.90;;;;;;6753677;88;20193;-79
2024/02/29 00:37:01;;;;;;;;;;;5.40;99.90;;;;;;6748317;88;20050;-80
2024/02/29 00:47:02;;;;;;;;;;;5.30;99.90;;;;;;6752615;88;20086;-78
2024/02/29 00:57:02;;;;;;;;;;;5.20;99.90;;;;;;6758598;88;20162;-78
2024/02/29 01:07:03;;;;;;;;;;;5.10;99.90;;;;;;6755509;88;20562;-80
2024/02/29 01:17:03;;;;;;;;;;;4.90;99.90;;;;;;6759536;88;20501;-80
2024/02/29 01:27:04;;;;;;;;;;;4.80;99.90;;;;;;6758431;88;20081;-79
2024/02/29 01:37:04;;;;;;;;;;;4.70;99.90;;;;;;6758432;88;20077;-81
2024/02/29 01:47:06;;;;;;;;;;;4.60;99.90;;;;;;6758186;88;20039;-80
2024/02/29 01:57:08;;;;;;;;;;;4.50;99.90;;;;;;6749844;88;20062;-77
2024/02/29 02:07:09;;;;;;;;;;;4.40;99.90;;;;;;6750183;88;20138;-78
2024/02/29 02:27:50;;;;;;;;;;;4.10;99.90;;;;;;6730583;88;20055;-79
2024/02/29 02:37:51;;;;;;;;;;;4.10;99.90;;;;;;6728640;88;20610;-79
2024/02/29 02:47:51;;;;;;;;;;;4.00;99.90;;;;;;6728268;88;20051;-79
2024/02/29 02:57:52;;;;;;;;;;;4.10;99.90;;;;;;6730678;88;20436;-79
2024/02/29 03:07:52;;;;;;;;;;;4.00;99.90;;;;;;6731423;88;20534;-80
2024/02/29 03:17:55;;;;;;;;;;;4.00;99.90;;;;;;6726348;88;20059;-80
2024/02/29 03:27:56;;;;;;;;;;;4.00;99.90;;;;;;6731506;88;20611;-79
2024/02/29 03:37:56;;;;;;;;;;;3.90;99.90;;;;;;6732125;88;20065;-79
2024/02/29 03:47:57;;;;;;;;;;;3.90;99.90;;;;;;6729461;88;20515;-77
2024/02/29 03:57:57;;;;;;;;;;;3.80;99.90;;;;;;6725900;88;20073;-79
2024/02/29 04:08:03;;;;;;;;;;;3.80;99.90;;;;;;6729522;88;22230;-79
2024/02/29 04:18:04;;;;;;;;;;;3.70;99.90;;;;;;6729498;88;20080;-79
2024/02/29 04:28:05;;;;;;;;;;;3.70;99.90;;;;;;6733074;88;20079;-80
2024/02/29 04:38:05;;;;;;;;;;;3.70;99.90;;;;;;6725976;88;20391;-80
2024/02/29 04:48:06;;;;;;;;;;;3.70;99.90;;;;;;6724929;88;20093;-79
2024/02/29 04:58:07;;;;;;;;;;;3.60;99.90;;;;;;6728785;88;20495;-80
2024/02/29 05:08:08;;;;;;;;;;;3.60;99.90;;;;;;6733998;88;20077;-79
2024/02/29 05:18:09;;;;;;;;;;;3.50;99.90;;;;;;6739424;88;20067;-79
2024/02/29 05:28:09;;;;;;;;;;;3.50;99.90;;;;;;6726905;88;20480;-79
2024/02/29 05:38:10;;;;;;;;;;;3.40;99.90;;;;;;6731135;88;20043;-79
2024/02/29 05:48:10;;;;;;;;;;;3.20;99.90;;;;;;6732551;88;20056;-80
2024/02/29 05:58:11;;;;;;;;;;;3.10;99.90;;;;;;6726698;88;20058;-80
2024/02/29 06:08:11;;;;;;;;;;;3.00;99.90;;;;;;6724705;88;20527;-81
2024/02/29 06:18:13;;;;;;;;;;;2.90;99.90;;;;;;6716931;88;20645;-78
2024/02/29 06:28:14;;;;;;;;;;;2.80;99.90;;;;;;6726393;88;20073;-80
2024/02/29 06:38:15;;;;;;;;;;;2.80;99.90;;;;;;6723921;88;20157;-79
2024/02/29 06:48:16;;;;;;;;;;;2.80;99.90;;;;;;6732022;88;20093;-82
2024/02/29 06:58:18;;;;;;;;;;;2.80;99.90;;;;;;6722519;88;20069;-78
2024/02/29 07:08:19;;;;;;;;;;;3.00;99.90;;;;;;6718269;88;20067;-77
2024/02/29 07:18:20;;;;;;;;;;;3.10;99.90;;;;;;6720089;88;20497;-77
2024/02/29 07:28:21;;;;;;;;;;;3.30;99.90;;;;;;6720057;88;20052;-77
2024/02/29 07:38:21;;;;;;;;;;;3.60;99.90;;;;;;6717868;88;20070;-76
2024/02/29 07:48:22;;;;;;;;;;;3.90;99.90;;;;;;6714782;88;20080;-76
2024/02/29 07:58:22;;;;;;;;;;;4.20;99.90;;;;;;6719527;88;20121;-77
2024/02/29 08:08:23;;;;;;;;;;;5.10;99.90;;;;;;6716757;88;20059;-77
2024/02/29 08:29:25;;;;;;;;;;;5.80;99.90;;;;;;6717632;88;20098;-79
2024/02/29 08:39:25;;;;;;;;;;;6.00;99.90;;;;;;6714526;88;20581;-81
2024/02/29 08:49:26;;;;;;;;;;;6.60;99.90;;;;;;6717393;88;20142;-80
2024/02/29 08:59:26;;;;;;;;;;;6.70;99.90;;;;;;6716492;88;20199;-81
2024/02/29 09:09:30;;;;;;;;;;;7.30;99.90;;;;;;6713005;88;20066;-80
2024/02/29 09:19:31;;;;;;;;;;;8.30;99.90;;;;;;6716747;88;20119;-80
2024/02/29 09:29:32;;;;;;;;;;;8.00;99.90;;;;;;6717018;88;20160;-81
2024/02/29 09:39:32;;;;;;;;;;;8.50;99.90;;;;;;6717129;88;20540;-81
2024/02/29 09:49:33;;;;;;;;;;;8.90;99.90;;;;;;6715915;88;20080;-80
2024/02/29 09:59:33;;;;;;;;;;;9.50;99.90;;;;;;6713208;88;20092;-79
2024/02/29 10:09:34;;;;;;;;;;;9.60;99.90;;;;;;6716606;88;20066;-81
2024/02/29 10:19:37;;;;;;;;;;;9.40;99.90;;;;;;6711958;88;20128;-79
2024/02/29 10:29:38;;;;;;;;;;;9.90;99.90;;;;;;6715778;88;20088;-79
2024/02/29 10:39:40;;;;;;;;;;;10.20;99.90;;;;;;6718935;88;20047;-79
2024/02/29 10:49:46;;;;;;;;;;;10.00;99.90;;;;;;6718623;88;20082;-79
2024/02/29 10:59:52;;;;;;;;;;;9.90;99.90;;;;;;6716691;88;20084;-79
2024/02/29 11:09:53;;;;;;;;;;;10.00;99.90;;;;;;6716899;88;20059;-79
2024/02/29 11:19:57;;;;;;;;;;;9.80;99.90;;;;;;6716556;88;20059;-80
2024/02/29 11:29:58;;;;;;;;;;;10.40;99.90;;;;;;6717488;88;20087;-79
2024/02/29 11:40:05;;;;;;;;;;;10.90;99.90;;;;;;6717187;88;20889;-79
2024/02/29 11:50:07;;;;;;;;;;;11.40;99.90;;;;;;6718100;88;20069;-79
2024/02/29 12:00:08;;;;;;;;;;;11.40;99.90;;;;;;6719751;88;20127;-79
2024/02/29 12:10:11;;;;;;;;;;;11.50;99.90;;;;;;6717332;88;20071;-79
2024/02/29 12:20:16;;;;;;;;;;;11.90;99.90;;;;;;6716415;88;20514;-81
2024/02/29 12:30:22;;;;;;;;;;;12.20;99.90;;;;;;6715693;88;20062;-80
2024/02/29 12:40:24;;;;;;;;;;;12.10;99.90;;;;;;6715858;88;20102;-80
2024/02/29 12:50:24;;;;;;;;;;;12.10;99.90;;;;;;6714763;88;20188;-81
2024/02/29 13:00:25;;;;;;;;;;;12.10;99.90;;;;;;6714535;88;20537;-81
2024/02/29 13:10:26;;;;;;;;;;;12.00;99.90;;;;;;6714758;88;20132;-81
2024/02/29 13:20:26;;;;;;;;;;;12.30;99.90;;;;;;6714857;88;20675;-81
2024/02/29 13:30:27;;;;;;;;;;;12.50;99.90;;;;;;6714099;88;20145;-81
2024/02/29 13:40:27;;;;;;;;;;;12.40;99.90;;;;;;6713212;88;20080;-81
2024/02/29 13:50:28;;;;;;;;;;;12.30;99.90;;;;;;6729846;88;20103;-82
2024/02/29 14:00:28;;;;;;;;;;;12.50;99.90;;;;;;6731766;88;20104;-79
2024/02/29 14:10:28;;;;;;;;;;;12.80;99.90;;;;;;6730236;88;20107;-79
2024/02/29 14:20:29;;;;;;;;;;;12.70;99.90;;;;;;6710569;77;20103;-78
2024/02/29 14:30:30;;;;;;;;;;;12.90;99.90;;;;;;6706616;88;20078;-77
2024/02/29 14:40:30;;;;;;;;;;;14.20;98.70;;;;;;6711443;88;20083;-77
2024/02/29 14:50:31;;;;;;;;;;;13.90;98.20;;;;;;6700597;88;20080;-78
2024/02/29 15:00:31;;;;;;;;;;;13.40;98.20;;;;;;6703229;88;20174;-77
2024/02/29 15:10:32;;;;;;;;;;;13.50;97.80;;;;;;6713132;88;20052;-79
2024/02/29 15:20:33;;;;;;;;;;;13.30;98.20;;;;;;6698907;88;20075;-77
2024/02/29 15:30:35;;;;;;;;;;;13.10;98.40;;;;;;6709507;88;20551;-77
2024/02/29 15:40:35;;;;;;;;;;;12.80;99.20;;;;;;6698631;88;20186;-78
2024/02/29 15:50:36;;;;;;;;;;;12.60;99.90;;;;;;6709854;88;20115;-77
2024/02/29 16:00:36;;;;;;;;;;;12.50;99.90;;;;;;6701632;88;20058;-77
2024/02/29 16:10:37;;;;;;;;;;;12.50;99.90;;;;;;6705461;88;20083;-77
2024/02/29 16:20:37;;;;;;;;;;;12.20;99.90;;;;;;6706477;88;20558;-78
2024/02/29 16:30:38;;;;;;;;;;;12.00;99.90;;;;;;6706533;88;20078;-78
2024/02/29 16:40:39;;;;;;;;;;;11.80;99.90;;;;;;6704527;88;20082;-78
2024/02/29 16:50:39;;;;;;;;;;;11.50;99.90;;;;;;6704637;88;20165;-78
2024/02/29 17:00:39;;;;;;;;;;;11.20;99.90;;;;;;6705497;88;20075;-78
2024/02/29 17:10:40;;;;;;;;;;;11.10;99.90;;;;;;6701740;88;20253;-78
2024/02/29 17:20:41;;;;;;;;;;;10.80;99.90;;;;;;6704352;88;20507;-77
2024/02/29 17:30:42;;;;;;;;;;;10.70;99.90;;;;;;6710053;88;20522;-77
2024/02/29 17:40:43;;;;;;;;;;;10.60;99.90;;;;;;6712955;88;20110;-79
2024/02/29 17:50:43;;;;;;;;;;;10.30;99.90;;;;;;6709113;88;20085;-79
2024/02/29 18:00:44;;;;;;;;;;;10.20;99.90;;;;;;6705950;88;20504;-78
2024/02/29 18:10:44;;;;;;;;;;;10.00;99.90;;;;;;6708137;88;20078;-78
2024/02/29 18:20:46;;;;;;;;;;;9.80;99.90;;;;;;6712187;88;20065;-78
2024/02/29 18:30:47;;;;;;;;;;;9.60;99.90;;;;;;6703968;88;20044;-76
2024/02/29 18:40:48;;;;;;;;;;;9.30;99.90;;;;;;6700860;88;20053;-77
2024/02/29 18:50:48;;;;;;;;;;;9.10;99.90;;;;;;6709273;88;20580;-77
2024/02/29 19:00:50;;;;;;;;;;;8.80;99.90;;;;;;6709874;88;20111;-76
2024/02/29 19:10:50;;;;;;;;;;;8.70;99.90;;;;;;6704704;88;20557;-76
2024/02/29 19:20:50;;;;;;;;;;;8.60;99.90;;;;;;6711449;88;20148;-77
2024/02/29 19:30:51;;;;;;;;;;;8.40;99.90;;;;;;6708817;88;20431;-76
2024/02/29 19:40:52;;;;;;;;;;;8.30;99.90;;;;;;6703829;88;20123;-77
2024/02/29 19:50:53;;;;;;;;;;;8.20;99.90;;;;;;6713204;88;20155;-78
2024/02/29 20:00:58;;;;;;;;;;;8.00;99.90;;;;;;6708905;88;20055;-76
2024/02/29 20:10:59;;;;;;;;;;;7.90;99.90;;;;;;6709455;88;20051;-78
2024/02/29 20:20:59;;;;;;;;;;;7.70;99.90;;;;;;6737449;77;20051;-79
2024/02/29 20:31:01;;;;;;;;;;;7.60;99.90;;;;;;6728465;88;20055;-79
2024/02/29 20:41:03;;;;;;;;;;;7.50;99.90;;;;;;6728378;88;20156;-78
2024/02/29 20:51:03;;;;;;;;;;;7.50;99.90;;;;;;6737603;88;20103;-80
2024/02/29 21:01:05;;;;;;;;;;;7.40;99.90;;;;;;6737671;88;20077;-81
2024/02/29 21:11:05;;;;;;;;;;;7.30;99.90;;;;;;6740571;88;20061;-81
2024/02/29 21:21:06;;;;;;;;;;;7.30;99.90;;;;;;6746758;88;20030;-81
2024/02/29 21:31:09;;;;;;;;;;;7.20;99.90;;;;;;6750929;88;20039;-80
2024/02/29 21:41:10;;;;;;;;;;;7.00;99.90;;;;;;6747511;88;20124;-81
2024/02/29 21:51:16;;;;;;;;;;;6.90;99.90;;;;;;6746924;88;20076;-81
2024/02/29 22:01:17;;;;;;;;;;;7.00;99.90;;;;;;6740370;88;20034;-81
2024/02/29 22:11:18;;;;;;;;;;;6.90;99.90;;;;;;6739766;88;20053;-83
2024/02/29 22:21:28;;;;;;;;;;;6.80;99.90;;;;;;6739390;88;20059;-82
2024/02/29 22:31:29;;;;;;;;;;;6.60;99.90;;;;;;6738857;88;20062;-82
2024/02/29 22:41:30;;;;;;;;;;;6.60;99.90;;;;;;6740661;88;20069;-80
2024/02/29 22:51:31;;;;;;;;;;;6.60;99.90;;;;;;6742502;88;20054;-81
2024/02/29 23:01:32;;;;;;;;;;;6.50;99.90;;;;;;6748578;88;20513;-81
2024/02/29 23:11:32;;;;;;;;;;;6.60;99.90;;;;;;6741858;88;20125;-81
2024/02/29 23:21:33;;;;;;;;;;;6.50;99.90;;;;;;6744731;88;20100;-81
2024/02/29 23:31:33;;;;;;;;;;;6.50;99.90;;;;;;6745972;88;20062;-80
2024/02/29 23:41:33;;;;;;;;;;;6.40;99.90;;;;;;6738087;88;20086;-80
2024/02/29 23:51:35;;;;;;;;;;;6.30;99.90;;;;;;6741777;88;20103;-81
